Time;durP1;ratioP1;P1;durP2;ratioP2;P2;SDS_P1;SDS_P2;PMS_P1;PMS_P2;Temp;Humidity;BMP_temperature;BMP_pressure;BME280_temperature;BME280_humidity;BME280_pressure;Samples;Min_cycle;Max_cycle;Signal;HPM_P1;HPM_P2
2023/04/27 00:00:37;;;;;;;26.00;11.32;;;;;;;;;;5114166;28;20030;-64
2023/04/27 00:03:04;;;;;;;22.08;10.38;;;;;;;;;;5114132;28;20072;-65
2023/04/27 00:05:39;;;;;;;20.77;10.30;;;;;;;;;;5113960;28;20091;-65
2023/04/27 00:08:05;;;;;;;25.23;10.48;;;;;;;;;;5113893;28;20528;-64
2023/04/27 00:10:32;;;;;;;26.83;10.63;;;;;;;;;;5113980;28;20032;-65
2023/04/27 00:12:58;;;;;;;23.38;10.73;;;;;;;;;;5114033;28;20039;-64
2023/04/27 00:15:24;;;;;;;24.50;10.77;;;;;;;;;;5113881;28;20040;-66
2023/04/27 00:17:50;;;;;;;23.95;10.35;;;;;;;;;;5113912;28;20522;-66
2023/04/27 00:20:17;;;;;;;26.75;11.88;;;;;;;;;;5113937;28;20058;-66
2023/04/27 00:22:43;;;;;;;24.33;12.50;;;;;;;;;;5113951;28;20369;-64
2023/04/27 00:25:09;;;;;;;27.83;12.20;;;;;;;;;;5113778;28;20042;-66
2023/04/27 00:27:35;;;;;;;23.52;11.52;;;;;;;;;;5113628;28;20153;-65
2023/04/27 00:30:01;;;;;;;29.95;11.75;;;;;;;;;;5113511;28;20030;-65
2023/04/27 00:32:27;;;;;;;30.15;12.68;;;;;;;;;;5113528;28;20038;-65
2023/04/27 00:34:53;;;;;;;31.90;13.18;;;;;;;;;;5113500;28;20099;-65
2023/04/27 00:37:20;;;;;;;29.15;13.32;;;;;;;;;;5113604;28;20035;-64
2023/04/27 00:39:46;;;;;;;37.13;14.23;;;;;;;;;;5113406;28;20552;-65
2023/04/27 00:42:12;;;;;;;30.05;12.98;;;;;;;;;;5113280;28;20020;-65
2023/04/27 00:44:39;;;;;;;30.98;13.57;;;;;;;;;;5113190;28;20016;-65
2023/04/27 00:47:05;;;;;;;29.73;14.07;;;;;;;;;;5113146;28;20055;-67
2023/04/27 00:49:32;;;;;;;29.48;13.90;;;;;;;;;;5113360;28;20513;-66
2023/04/27 00:51:59;;;;;;;30.65;15.02;;;;;;;;;;5111706;28;20055;-66
2023/04/27 00:54:25;;;;;;;30.27;14.55;;;;;;;;;;5112420;28;20088;-66
2023/04/27 00:56:52;;;;;;;29.77;15.48;;;;;;;;;;5113084;28;20063;-66
2023/04/27 00:59:18;;;;;;;33.85;15.00;;;;;;;;;;5113043;28;20027;-65
2023/04/27 01:01:48;;;;;;;36.28;15.63;;;;;;;;;;5112780;28;20084;-64
2023/04/27 01:04:15;;;;;;;35.78;15.45;;;;;;;;;;5113031;28;20111;-65
2023/04/27 01:06:41;;;;;;;31.60;16.38;;;;;;;;;;5112872;28;20089;-65
2023/04/27 01:09:08;;;;;;;34.38;15.90;;;;;;;;;;5112759;28;20404;-65
2023/04/27 01:11:34;;;;;;;40.80;16.25;;;;;;;;;;5112456;28;20027;-66
2023/04/27 01:14:04;;;;;;;40.25;17.80;;;;;;;;;;5112651;28;20016;-65
2023/04/27 01:16:31;;;;;;;36.13;17.58;;;;;;;;;;5112786;28;20034;-66
2023/04/27 01:18:57;;;;;;;34.72;16.20;;;;;;;;;;5112615;28;20030;-65
2023/04/27 01:21:23;;;;;;;41.35;17.85;;;;;;;;;;5112334;28;20026;-66
2023/04/27 01:23:49;;;;;;;40.05;18.23;;;;;;;;;;5112616;28;20023;-65
2023/04/27 01:26:15;;;;;;;38.33;18.00;;;;;;;;;;5112433;28;20047;-65
2023/04/27 01:28:42;;;;;;;38.17;18.98;;;;;;;;;;5112470;28;20408;-66
2023/04/27 01:31:10;;;;;;;38.92;19.30;;;;;;;;;;5112588;28;20032;-65
2023/04/27 01:33:36;;;;;;;43.10;18.40;;;;;;;;;;5112237;28;20012;-64
2023/04/27 01:36:02;;;;;;;40.35;19.73;;;;;;;;;;5112368;28;20509;-66
2023/04/27 01:38:28;;;;;;;44.42;18.98;;;;;;;;;;5112240;28;20026;-64
2023/04/27 01:41:00;;;;;;;45.42;19.88;;;;;;;;;;5112263;28;20019;-65
2023/04/27 01:43:26;;;;;;;43.35;20.35;;;;;;;;;;5112157;28;20088;-65
2023/04/27 01:45:52;;;;;;;38.20;20.38;;;;;;;;;;5112053;28;20051;-64
2023/04/27 01:48:18;;;;;;;41.75;19.92;;;;;;;;;;5112046;28;20126;-65
2023/04/27 01:50:44;;;;;;;42.33;20.48;;;;;;;;;;5112126;28;20035;-65
2023/04/27 01:53:11;;;;;;;41.03;20.40;;;;;;;;;;5111887;28;20510;-65
2023/04/27 01:55:37;;;;;;;50.13;20.55;;;;;;;;;;5111866;28;20030;-64
2023/04/27 01:58:03;;;;;;;47.40;21.23;;;;;;;;;;5111895;28;20026;-65
2023/04/27 02:00:29;;;;;;;46.20;20.95;;;;;;;;;;5111961;28;20110;-65
2023/04/27 02:02:59;;;;;;;48.63;21.40;;;;;;;;;;5111928;28;20031;-64
2023/04/27 02:05:26;;;;;;;47.22;20.83;;;;;;;;;;5111752;28;20375;-64
2023/04/27 02:07:52;;;;;;;43.58;22.27;;;;;;;;;;5110992;28;20020;-64
2023/04/27 02:10:18;;;;;;;47.33;21.67;;;;;;;;;;5111503;28;20510;-66
2023/04/27 02:12:44;;;;;;;43.95;21.20;;;;;;;;;;5112169;28;20022;-65
2023/04/27 02:15:10;;;;;;;44.03;20.92;;;;;;;;;;5111526;28;20024;-65
2023/04/27 02:17:37;;;;;;;38.97;19.42;;;;;;;;;;5111554;28;20623;-64
2023/04/27 02:20:05;;;;;;;51.03;21.42;;;;;;;;;;5111654;28;20032;-64
2023/04/27 02:22:31;;;;;;;43.65;21.60;;;;;;;;;;5111626;28;20036;-64
2023/04/27 02:24:57;;;;;;;41.80;20.88;;;;;;;;;;5111659;28;20020;-65
2023/04/27 02:27:23;;;;;;;40.92;20.05;;;;;;;;;;5111453;28;20035;-65
2023/04/27 02:29:49;;;;;;;44.22;19.88;;;;;;;;;;5111552;28;20059;-65
2023/04/27 02:32:15;;;;;;;56.00;22.58;;;;;;;;;;5111607;28;20476;-66
2023/04/27 02:34:41;;;;;;;52.80;21.17;;;;;;;;;;5111594;28;20496;-65
2023/04/27 02:37:08;;;;;;;45.60;20.85;;;;;;;;;;5111408;28;20407;-65
2023/04/27 02:39:34;;;;;;;44.92;22.13;;;;;;;;;;5111472;28;20047;-65
2023/04/27 02:42:01;;;;;;;49.08;21.65;;;;;;;;;;5111357;28;20608;-66
2023/04/27 02:44:27;;;;;;;47.17;20.92;;;;;;;;;;5111511;28;20110;-65
2023/04/27 02:46:53;;;;;;;45.58;20.58;;;;;;;;;;5111309;28;20093;-65
2023/04/27 02:49:19;;;;;;;45.33;21.33;;;;;;;;;;5111456;28;20027;-65
2023/04/27 02:51:45;;;;;;;48.83;22.63;;;;;;;;;;5111190;28;20036;-64
2023/04/27 02:54:12;;;;;;;47.78;21.70;;;;;;;;;;5111261;28;20102;-66
2023/04/27 02:56:38;;;;;;;45.28;20.48;;;;;;;;;;5111304;28;20479;-65
2023/04/27 02:59:04;;;;;;;49.95;22.23;;;;;;;;;;5111176;28;20034;-66
2023/04/27 03:01:30;;;;;;;55.13;22.40;;;;;;;;;;5109955;28;20074;-66
2023/04/27 03:03:56;;;;;;;47.35;22.30;;;;;;;;;;5111178;28;20031;-65
2023/04/27 03:06:22;;;;;;;46.90;21.13;;;;;;;;;;5109632;28;20103;-62
2023/04/27 03:08:48;;;;;;;46.75;22.38;;;;;;;;;;5110889;28;20069;-63
2023/04/27 03:11:14;;;;;;;53.20;22.08;;;;;;;;;;5110783;28;20110;-63
2023/04/27 03:13:40;;;;;;;45.97;21.67;;;;;;;;;;5111148;28;20051;-63
2023/04/27 03:16:10;;;;;;;48.70;23.13;;;;;;;;;;5111007;28;20536;-63
2023/04/27 03:18:36;;;;;;;50.67;22.45;;;;;;;;;;5112875;28;20015;-63
2023/04/27 03:21:09;;;;;;;48.70;22.85;;;;;;;;;;5114974;28;20107;-63
2023/04/27 03:23:35;;;;;;;48.33;23.17;;;;;;;;;;5115074;27;20032;-63
2023/04/27 03:26:05;;;;;;;48.65;23.85;;;;;;;;;;5114719;28;20376;-61
2023/04/27 03:28:31;;;;;;;52.42;23.33;;;;;;;;;;5114686;28;20027;-63
2023/04/27 03:30:57;;;;;;;45.92;23.70;;;;;;;;;;5114469;28;20036;-63
2023/04/27 03:33:25;;;;;;;49.65;23.27;;;;;;;;;;5114649;28;20016;-63
2023/04/27 03:35:58;;;;;;;50.50;24.38;;;;;;;;;;5114623;28;20047;-63
2023/04/27 03:38:24;;;;;;;54.88;24.88;;;;;;;;;;5114691;28;20505;-62
2023/04/27 03:40:50;;;;;;;54.42;23.73;;;;;;;;;;5114688;28;20027;-62
2023/04/27 03:43:17;;;;;;;52.25;23.33;;;;;;;;;;5114263;28;20024;-62
2023/04/27 03:45:43;;;;;;;54.97;24.25;;;;;;;;;;5114290;28;20040;-62
2023/04/27 03:48:09;;;;;;;47.30;24.15;;;;;;;;;;5114151;28;20141;-61
2023/04/27 03:50:35;;;;;;;50.05;24.48;;;;;;;;;;5114188;28;20387;-63
2023/04/27 03:53:01;;;;;;;47.30;23.52;;;;;;;;;;5114198;28;20016;-62
2023/04/27 03:55:27;;;;;;;51.45;23.92;;;;;;;;;;5114384;28;20111;-62
2023/04/27 03:57:53;;;;;;;44.95;22.73;;;;;;;;;;5114002;28;20073;-62
2023/04/27 04:00:19;;;;;;;47.78;23.88;;;;;;;;;;5114032;28;20468;-63
2023/04/27 04:02:45;;;;;;;58.55;25.15;;;;;;;;;;5113994;28;20487;-63
2023/04/27 04:05:13;;;;;;;46.60;23.92;;;;;;;;;;5113857;28;20038;-64
2023/04/27 04:07:40;;;;;;;57.45;23.88;;;;;;;;;;5113847;28;20061;-63
2023/04/27 04:10:07;;;;;;;53.72;24.98;;;;;;;;;;5113389;28;20024;-63
2023/04/27 04:12:33;;;;;;;58.58;25.67;;;;;;;;;;5113783;28;20027;-63
2023/04/27 04:14:59;;;;;;;50.72;25.48;;;;;;;;;;5112464;28;20516;-63
2023/04/27 04:17:25;;;;;;;50.70;25.00;;;;;;;;;;5113653;28;20036;-63
2023/04/27 04:19:51;;;;;;;57.03;26.52;;;;;;;;;;5113998;28;20099;-61
2023/04/27 04:22:17;;;;;;;53.50;26.40;;;;;;;;;;5113519;28;20534;-63
2023/04/27 04:24:43;;;;;;;56.30;26.63;;;;;;;;;;5113639;28;20476;-63
2023/04/27 04:27:10;;;;;;;53.95;25.67;;;;;;;;;;5113497;28;20026;-62
2023/04/27 04:29:37;;;;;;;52.15;26.08;;;;;;;;;;5112343;28;20027;-63
2023/04/27 04:32:03;;;;;;;59.83;27.27;;;;;;;;;;5113402;28;20412;-63
2023/04/27 04:34:29;;;;;;;60.03;26.65;;;;;;;;;;5113416;28;20031;-63
2023/04/27 04:36:59;;;;;;;63.08;27.00;;;;;;;;;;5113241;28;20023;-64
2023/04/27 04:39:26;;;;;;;50.50;25.52;;;;;;;;;;5113226;28;20073;-63
2023/04/27 04:41:52;;;;;;;51.28;24.90;;;;;;;;;;5113069;28;20357;-63
2023/04/27 04:44:19;;;;;;;51.78;24.83;;;;;;;;;;5113219;28;20476;-62
2023/04/27 04:46:46;;;;;;;51.70;24.80;;;;;;;;;;5112896;28;20621;-63
2023/04/27 04:49:12;;;;;;;54.45;26.73;;;;;;;;;;5113003;28;20495;-63
2023/04/27 04:51:42;;;;;;;51.15;24.77;;;;;;;;;;5111688;28;20035;-63
2023/04/27 04:54:08;;;;;;;51.03;24.88;;;;;;;;;;5113174;28;20184;-64
2023/04/27 04:56:34;;;;;;;52.55;26.33;;;;;;;;;;5112916;28;20027;-63
2023/04/27 04:59:00;;;;;;;51.50;24.52;;;;;;;;;;5112908;28;20047;-62
2023/04/27 05:01:26;;;;;;;53.15;25.23;;;;;;;;;;5113259;28;20019;-63
2023/04/27 05:03:53;;;;;;;59.05;25.10;;;;;;;;;;5112535;28;20027;-64
2023/04/27 05:06:19;;;;;;;50.15;23.42;;;;;;;;;;5112812;28;20024;-64
2023/04/27 05:08:45;;;;;;;48.97;24.70;;;;;;;;;;5112978;28;20119;-63
2023/04/27 05:11:11;;;;;;;50.60;24.27;;;;;;;;;;5111340;28;20044;-64
2023/04/27 05:13:37;;;;;;;46.92;23.80;;;;;;;;;;5111502;28;20016;-63
2023/04/27 05:16:06;;;;;;;51.85;24.55;;;;;;;;;;5112897;28;20037;-63
2023/04/27 05:18:33;;;;;;;45.30;22.92;;;;;;;;;;5112689;28;20019;-63
2023/04/27 05:20:59;;;;;;;44.15;21.83;;;;;;;;;;5112372;28;20368;-63
2023/04/27 05:23:25;;;;;;;45.20;23.73;;;;;;;;;;5112485;28;20734;-64
2023/04/27 05:25:51;;;;;;;44.38;22.30;;;;;;;;;;5112764;28;20024;-63
2023/04/27 05:28:17;;;;;;;45.67;22.23;;;;;;;;;;5112473;28;20030;-62
2023/04/27 05:30:43;;;;;;;47.08;22.88;;;;;;;;;;5112475;28;20035;-63
2023/04/27 05:33:09;;;;;;;42.03;21.42;;;;;;;;;;5112151;28;20016;-63
2023/04/27 05:35:36;;;;;;;47.25;23.20;;;;;;;;;;5111071;28;20055;-64
2023/04/27 05:38:02;;;;;;;40.63;21.90;;;;;;;;;;5112372;28;20016;-62
2023/04/27 05:40:28;;;;;;;41.83;21.10;;;;;;;;;;5112315;28;20015;-64
2023/04/27 05:42:55;;;;;;;41.90;21.02;;;;;;;;;;5112109;28;20024;-64
2023/04/27 05:45:21;;;;;;;44.03;21.05;;;;;;;;;;5112348;28;20047;-62
2023/04/27 05:47:47;;;;;;;36.00;19.60;;;;;;;;;;5111904;28;20047;-62
2023/04/27 05:50:13;;;;;;;40.15;20.92;;;;;;;;;;5112105;28;20031;-62
2023/04/27 05:52:40;;;;;;;40.55;19.55;;;;;;;;;;5112067;28;20049;-62
2023/04/27 05:55:07;;;;;;;34.65;18.40;;;;;;;;;;5111906;28;20472;-61
2023/04/27 05:57:33;;;;;;;34.03;19.52;;;;;;;;;;5111859;28;20059;-64
2023/04/27 05:59:59;;;;;;;37.28;19.05;;;;;;;;;;5112025;28;20023;-62
2023/04/27 06:02:25;;;;;;;38.50;19.08;;;;;;;;;;5111919;28;20695;-62
2023/04/27 06:04:51;;;;;;;35.78;18.42;;;;;;;;;;5111921;28;20099;-62
2023/04/27 06:07:17;;;;;;;40.33;19.55;;;;;;;;;;5111496;28;20031;-63
2023/04/27 06:09:43;;;;;;;37.10;20.00;;;;;;;;;;5110527;27;20054;-62
2023/04/27 06:12:09;;;;;;;35.05;18.63;;;;;;;;;;5123114;27;20039;-62
2023/04/27 06:14:37;;;;;;;35.30;18.30;;;;;;;;;;5100866;28;20028;-61
2023/04/27 06:17:03;;;;;;;32.40;17.40;;;;;;;;;;5101307;28;20027;-62
2023/04/27 06:19:30;;;;;;;31.33;18.13;;;;;;;;;;5091132;28;20024;-62
2023/04/27 06:21:56;;;;;;;30.80;16.88;;;;;;;;;;5090026;28;20161;-63
2023/04/27 06:24:22;;;;;;;28.45;14.77;;;;;;;;;;5090573;28;20067;-63
2023/04/27 06:26:49;;;;;;;27.08;14.80;;;;;;;;;;5100900;28;20030;-61
2023/04/27 06:29:15;;;;;;;27.42;14.98;;;;;;;;;;5094658;28;20028;-63
2023/04/27 06:31:41;;;;;;;29.92;14.98;;;;;;;;;;5091016;28;20044;-62
2023/04/27 06:34:07;;;;;;;24.50;13.65;;;;;;;;;;5091094;28;20658;-62
2023/04/27 06:36:33;;;;;;;26.83;13.90;;;;;;;;;;5091428;28;20708;-63
2023/04/27 06:38:59;;;;;;;22.95;13.40;;;;;;;;;;5092168;28;20173;-65
2023/04/27 06:41:26;;;;;;;24.35;13.32;;;;;;;;;;5102782;28;20185;-63
2023/04/27 06:43:52;;;;;;;24.08;13.27;;;;;;;;;;5106718;28;20027;-63
2023/04/27 06:46:19;;;;;;;27.50;14.15;;;;;;;;;;5090930;28;20032;-62
2023/04/27 06:48:45;;;;;;;25.42;13.70;;;;;;;;;;5091204;28;20040;-62
2023/04/27 06:51:12;;;;;;;23.88;13.30;;;;;;;;;;5090006;28;20098;-62
2023/04/27 06:53:38;;;;;;;24.50;13.13;;;;;;;;;;5099800;28;20024;-63
2023/04/27 06:56:05;;;;;;;24.85;13.02;;;;;;;;;;5114726;28;20035;-63
2023/04/27 06:58:31;;;;;;;26.40;12.82;;;;;;;;;;5110484;28;20028;-62
2023/04/27 07:00:57;;;;;;;29.45;13.80;;;;;;;;;;5115644;28;20027;-63
2023/04/27 07:03:23;;;;;;;29.42;13.60;;;;;;;;;;5098908;28;20064;-63
2023/04/27 07:05:50;;;;;;;22.58;13.30;;;;;;;;;;5095009;28;20024;-62
2023/04/27 07:08:16;;;;;;;23.55;13.23;;;;;;;;;;5097741;28;20016;-62
2023/04/27 07:10:42;;;;;;;27.63;13.65;;;;;;;;;;5113787;28;20051;-63
2023/04/27 07:13:08;;;;;;;23.40;12.90;;;;;;;;;;5115214;28;20024;-63
2023/04/27 07:15:35;;;;;;;24.23;12.30;;;;;;;;;;5115118;28;20019;-62
2023/04/27 07:18:01;;;;;;;21.83;12.07;;;;;;;;;;5111773;28;20027;-62
2023/04/27 07:20:27;;;;;;;23.38;11.75;;;;;;;;;;5115098;28;20020;-63
2023/04/27 07:22:53;;;;;;;22.40;12.23;;;;;;;;;;5113877;28;20171;-62
2023/04/27 07:25:19;;;;;;;22.60;12.02;;;;;;;;;;5115148;28;20030;-63
2023/04/27 07:27:45;;;;;;;25.85;11.77;;;;;;;;;;5113505;28;20036;-63
2023/04/27 07:30:13;;;;;;;24.30;12.38;;;;;;;;;;5114851;28;20028;-62
2023/04/27 07:32:42;;;;;;;25.33;12.95;;;;;;;;;;5115035;28;20383;-62
2023/04/27 07:35:09;;;;;;;20.25;12.57;;;;;;;;;;5103385;28;20093;-63
2023/04/27 07:37:37;;;;;;;26.60;12.30;;;;;;;;;;5094975;28;20626;-63
2023/04/27 07:40:15;;;;;;;19.00;10.77;;;;;;;;;;5114692;28;20371;-62
2023/04/27 07:42:42;;;;;;;20.27;12.07;;;;;;;;;;5113438;28;20051;-63
2023/04/27 07:45:09;;;;;;;25.67;12.05;;;;;;;;;;5094610;28;20024;-62
2023/04/27 07:47:35;;;;;;;20.20;12.18;;;;;;;;;;5097156;28;20035;-62
2023/04/27 07:50:01;;;;;;;19.98;11.57;;;;;;;;;;5093739;28;20082;-62
2023/04/27 07:52:27;;;;;;;17.83;11.88;;;;;;;;;;5113334;28;20440;-63
2023/04/27 07:54:53;;;;;;;22.20;13.45;;;;;;;;;;5094072;28;20055;-62
2023/04/27 07:57:19;;;;;;;22.55;12.00;;;;;;;;;;5094920;28;20028;-64
2023/04/27 07:59:46;;;;;;;27.52;13.13;;;;;;;;;;5114299;28;20038;-62
2023/04/27 08:02:12;;;;;;;20.13;11.57;;;;;;;;;;5106948;28;20032;-62
2023/04/27 08:04:38;;;;;;;21.65;12.95;;;;;;;;;;5109410;28;20020;-63
2023/04/27 08:07:04;;;;;;;22.05;12.27;;;;;;;;;;5114280;28;20099;-63
2023/04/27 08:09:30;;;;;;;21.77;11.73;;;;;;;;;;5099554;28;20020;-62
2023/04/27 08:11:57;;;;;;;20.15;11.23;;;;;;;;;;5106422;27;20119;-63
2023/04/27 08:14:23;;;;;;;18.48;11.35;;;;;;;;;;5098873;28;20116;-62
2023/04/27 08:16:50;;;;;;;23.38;11.68;;;;;;;;;;5095604;28;20055;-63
2023/04/27 08:19:17;;;;;;;20.92;11.25;;;;;;;;;;5093244;28;20381;-62
2023/04/27 08:21:43;;;;;;;26.35;11.32;;;;;;;;;;5093395;28;20023;-62
2023/04/27 08:24:09;;;;;;;19.95;11.10;;;;;;;;;;5093382;28;20024;-63
2023/04/27 08:26:35;;;;;;;21.98;11.30;;;;;;;;;;5092707;28;20024;-62
2023/04/27 08:29:02;;;;;;;18.48;10.65;;;;;;;;;;5093097;28;20070;-62
2023/04/27 08:31:28;;;;;;;23.45;10.00;;;;;;;;;;5092998;28;20331;-62
2023/04/27 08:33:54;;;;;;;17.65;9.15;;;;;;;;;;5092018;28;20047;-62
2023/04/27 08:36:25;;;;;;;17.70;9.70;;;;;;;;;;5093386;28;20117;-63
2023/04/27 08:38:51;;;;;;;18.95;9.70;;;;;;;;;;5093290;28;20016;-62
2023/04/27 08:41:21;;;;;;;18.27;9.23;;;;;;;;;;5092508;28;20571;-63
2023/04/27 08:43:50;;;;;;;19.38;9.57;;;;;;;;;;5092278;28;20024;-62
2023/04/27 08:46:25;;;;;;;16.48;8.70;;;;;;;;;;5093380;28;20024;-62
2023/04/27 08:48:52;;;;;;;16.85;8.68;;;;;;;;;;5113194;28;20104;-62
2023/04/27 08:51:19;;;;;;;16.92;8.45;;;;;;;;;;5110736;28;20085;-62
2023/04/27 08:53:49;;;;;;;15.93;8.30;;;;;;;;;;5113528;28;20072;-62
2023/04/27 08:56:15;;;;;;;16.85;8.40;;;;;;;;;;5095905;28;20427;-62
2023/04/27 08:58:41;;;;;;;18.02;8.00;;;;;;;;;;5098032;28;20054;-62
2023/04/27 09:01:07;;;;;;;19.88;8.50;;;;;;;;;;5103725;28;20400;-64
2023/04/27 09:03:34;;;;;;;14.18;8.02;;;;;;;;;;5106764;28;20023;-62
2023/04/27 09:06:01;;;;;;;17.23;8.57;;;;;;;;;;5108091;28;20027;-64
2023/04/27 09:08:27;;;;;;;18.98;8.27;;;;;;;;;;5111597;28;20673;-62
2023/04/27 09:10:54;;;;;;;18.42;8.32;;;;;;;;;;5109979;28;20392;-62
2023/04/27 09:13:20;;;;;;;15.35;8.13;;;;;;;;;;5109452;28;20027;-63
2023/04/27 09:15:50;;;;;;;21.40;8.27;;;;;;;;;;5111390;28;20055;-63
2023/04/27 09:18:17;;;;;;;19.05;8.23;;;;;;;;;;5111355;28;20492;-62
2023/04/27 09:20:43;;;;;;;20.80;8.10;;;;;;;;;;5111538;28;20080;-62
2023/04/27 09:23:09;;;;;;;16.88;8.23;;;;;;;;;;5111354;28;20019;-63
2023/04/27 09:25:36;;;;;;;12.55;7.88;;;;;;;;;;5111524;28;20031;-63
2023/04/27 09:28:02;;;;;;;18.63;9.10;;;;;;;;;;5111272;28;20027;-65
2023/04/27 09:30:29;;;;;;;16.90;8.20;;;;;;;;;;5111211;28;20131;-61
2023/04/27 09:33:02;;;;;;;17.45;8.88;;;;;;;;;;5111248;28;20058;-61
2023/04/27 09:35:30;;;;;;;15.05;8.43;;;;;;;;;;5111155;28;20111;-62
2023/04/27 09:37:56;;;;;;;18.75;8.88;;;;;;;;;;5108763;28;20016;-62
2023/04/27 09:40:28;;;;;;;15.57;8.40;;;;;;;;;;5110988;28;20016;-62
2023/04/27 09:42:55;;;;;;;15.18;9.38;;;;;;;;;;5108852;28;20032;-63
2023/04/27 09:45:22;;;;;;;15.60;8.45;;;;;;;;;;5099227;28;20117;-62
2023/04/27 09:47:48;;;;;;;12.80;7.25;;;;;;;;;;5104144;28;20052;-62
2023/04/27 09:50:15;;;;;;;16.55;8.80;;;;;;;;;;5110790;27;20043;-61
2023/04/27 09:52:41;;;;;;;16.05;7.70;;;;;;;;;;5101985;28;20028;-62
2023/04/27 09:55:10;;;;;;;14.35;8.25;;;;;;;;;;5091614;28;20059;-61
2023/04/27 09:57:49;;;;;;;17.60;8.32;;;;;;;;;;5090948;28;20031;-62
2023/04/27 10:00:21;;;;;;;17.15;8.02;;;;;;;;;;5103107;28;20087;-63
2023/04/27 10:03:03;;;;;;;19.33;9.20;;;;;;;;;;5105980;28;20036;-62
2023/04/27 10:05:48;;;;;;;14.38;7.38;;;;;;;;;;5097708;28;20032;-62
2023/04/27 10:08:14;;;;;;;18.85;8.05;;;;;;;;;;5095235;28;20020;-63
2023/04/27 10:10:47;;;;;;;14.27;8.73;;;;;;;;;;5100937;28;20031;-62
2023/04/27 10:13:21;;;;;;;14.85;8.73;;;;;;;;;;5111698;28;20023;-62
2023/04/27 10:15:48;;;;;;;12.77;7.65;;;;;;;;;;5112315;28;20617;-62
2023/04/27 10:18:25;;;;;;;17.70;7.97;;;;;;;;;;5106962;27;20102;-62
2023/04/27 10:20:51;;;;;;;14.23;8.68;;;;;;;;;;5111616;28;20027;-62
2023/04/27 10:23:27;;;;;;;14.93;8.68;;;;;;;;;;5110322;28;20031;-61
2023/04/27 10:25:54;;;;;;;14.05;8.52;;;;;;;;;;5110321;28;20444;-61
2023/04/27 10:28:20;;;;;;;14.68;9.10;;;;;;;;;;5110567;28;20361;-62
2023/04/27 10:30:47;;;;;;;15.80;8.30;;;;;;;;;;5111676;28;20123;-61
2023/04/27 10:33:18;;;;;;;15.75;8.95;;;;;;;;;;5111383;28;20032;-61
2023/04/27 10:35:45;;;;;;;18.27;9.65;;;;;;;;;;5111495;28;20024;-61
2023/04/27 10:38:16;;;;;;;20.33;9.68;;;;;;;;;;5111562;28;20455;-61
2023/04/27 10:40:44;;;;;;;15.68;8.55;;;;;;;;;;5111345;28;20023;-61
2023/04/27 10:43:10;;;;;;;22.73;9.00;;;;;;;;;;5110399;28;20471;-61
2023/04/27 10:45:36;;;;;;;20.02;9.02;;;;;;;;;;5103163;28;20408;-62
2023/04/27 10:48:02;;;;;;;17.10;9.70;;;;;;;;;;5091068;28;20051;-63
2023/04/27 10:50:28;;;;;;;18.67;10.00;;;;;;;;;;5091032;28;20047;-61
2023/04/27 10:53:00;;;;;;;20.70;9.88;;;;;;;;;;5090905;28;20027;-62
2023/04/27 10:55:26;;;;;;;15.32;9.82;;;;;;;;;;5091020;28;20028;-61
2023/04/27 10:57:53;;;;;;;15.70;9.60;;;;;;;;;;5090966;28;20109;-62
2023/04/27 11:00:23;;;;;;;16.98;9.23;;;;;;;;;;5090816;28;20036;-61
2023/04/27 11:02:49;;;;;;;18.27;8.98;;;;;;;;;;5090477;28;20565;-62
2023/04/27 11:05:18;;;;;;;15.95;9.70;;;;;;;;;;5110961;28;20030;-62
2023/04/27 11:07:46;;;;;;;16.13;9.90;;;;;;;;;;5111251;28;20073;-62
2023/04/27 11:10:16;;;;;;;15.95;9.73;;;;;;;;;;5111168;28;20426;-61
2023/04/27 11:12:42;;;;;;;16.98;9.32;;;;;;;;;;5111370;28;20404;-62
2023/04/27 11:15:09;;;;;;;17.17;9.73;;;;;;;;;;5111376;28;20020;-62
2023/04/27 11:17:35;;;;;;;13.95;8.82;;;;;;;;;;5110878;28;20028;-62
2023/04/27 11:20:03;;;;;;;15.82;9.35;;;;;;;;;;5109988;28;20108;-62
2023/04/27 11:22:29;;;;;;;21.67;8.80;;;;;;;;;;5111039;28;20023;-62
2023/04/27 11:24:56;;;;;;;15.05;8.50;;;;;;;;;;5111055;28;20380;-61
2023/04/27 11:27:24;;;;;;;15.43;8.05;;;;;;;;;;5110969;28;20106;-61
2023/04/27 11:29:50;;;;;;;15.00;8.65;;;;;;;;;;5110904;28;20111;-62
2023/04/27 11:32:20;;;;;;;12.13;7.88;;;;;;;;;;5111550;28;20436;-62
2023/04/27 11:34:52;;;;;;;16.50;8.63;;;;;;;;;;5111039;28;20026;-62
2023/04/27 11:37:23;;;;;;;21.23;8.73;;;;;;;;;;5109571;28;20073;-62
2023/04/27 11:39:49;;;;;;;16.48;8.52;;;;;;;;;;5113149;28;20106;-62
2023/04/27 11:42:20;;;;;;;15.40;8.27;;;;;;;;;;5114588;28;20540;-62
2023/04/27 11:44:59;;;;;;;13.43;8.35;;;;;;;;;;5114372;28;20031;-62
2023/04/27 11:47:27;;;;;;;16.33;8.02;;;;;;;;;;5114618;28;20103;-62
2023/04/27 11:49:57;;;;;;;16.23;8.60;;;;;;;;;;5114269;28;20114;-62
2023/04/27 11:52:28;;;;;;;16.45;8.32;;;;;;;;;;5113357;28;20055;-62
2023/04/27 11:54:55;;;;;;;17.10;8.87;;;;;;;;;;5113083;28;20404;-62
2023/04/27 11:57:28;;;;;;;15.43;8.40;;;;;;;;;;5113987;28;20392;-62
2023/04/27 11:59:55;;;;;;;18.40;8.85;;;;;;;;;;5114731;28;20492;-62
2023/04/27 12:02:21;;;;;;;17.33;8.60;;;;;;;;;;5114173;28;20054;-61
2023/04/27 12:04:48;;;;;;;18.58;9.27;;;;;;;;;;5114012;28;20381;-62
2023/04/27 12:07:14;;;;;;;21.42;8.65;;;;;;;;;;5113891;28;20031;-62
2023/04/27 12:09:41;;;;;;;13.00;8.00;;;;;;;;;;5114067;28;20046;-61
2023/04/27 12:12:07;;;;;;;13.20;7.97;;;;;;;;;;5112541;28;20082;-61
2023/04/27 12:14:33;;;;;;;14.45;8.43;;;;;;;;;;5113758;28;20460;-61
2023/04/27 12:16:59;;;;;;;17.65;8.43;;;;;;;;;;5113775;28;20038;-62
2023/04/27 12:19:25;;;;;;;16.08;8.52;;;;;;;;;;5103530;28;20024;-61
2023/04/27 12:21:52;;;;;;;16.95;8.57;;;;;;;;;;5093455;28;20028;-61
2023/04/27 12:24:19;;;;;;;14.85;7.80;;;;;;;;;;5096611;28;20107;-61
2023/04/27 12:26:45;;;;;;;12.50;7.65;;;;;;;;;;5098452;27;20124;-62
2023/04/27 12:29:11;;;;;;;16.20;8.95;;;;;;;;;;5118117;27;20031;-61
2023/04/27 12:31:38;;;;;;;17.02;9.18;;;;;;;;;;5113481;28;20472;-63
2023/04/27 12:34:04;;;;;;;19.27;8.85;;;;;;;;;;5111735;28;20453;-62
2023/04/27 12:36:31;;;;;;;18.63;8.48;;;;;;;;;;5094231;28;20078;-62
2023/04/27 12:38:58;;;;;;;14.10;8.63;;;;;;;;;;5092958;28;20094;-63
2023/04/27 12:41:24;;;;;;;17.08;8.70;;;;;;;;;;5094787;28;20092;-63
2023/04/27 12:43:50;;;;;;;15.93;8.55;;;;;;;;;;5101582;28;20388;-62
2023/04/27 12:46:17;;;;;;;16.15;9.05;;;;;;;;;;5112251;28;20016;-61
2023/04/27 12:48:43;;;;;;;14.82;8.10;;;;;;;;;;5093056;28;20071;-61
2023/04/27 12:51:10;;;;;;;14.68;8.77;;;;;;;;;;5090370;28;20252;-61
2023/04/27 12:53:36;;;;;;;9.95;8.15;;;;;;;;;;5092615;28;20038;-62
2023/04/27 12:56:03;;;;;;;15.80;8.25;;;;;;;;;;5090905;28;20032;-62
2023/04/27 12:58:30;;;;;;;14.63;8.65;;;;;;;;;;5081197;28;20020;-62
2023/04/27 13:00:57;;;;;;;14.40;8.05;;;;;;;;;;5073180;28;20492;-62
2023/04/27 13:03:23;;;;;;;12.25;7.45;;;;;;;;;;5072466;28;20036;-61
2023/04/27 13:05:50;;;;;;;13.15;7.28;;;;;;;;;;5075903;28;20048;-62
2023/04/27 13:08:16;;;;;;;12.05;7.47;;;;;;;;;;5074287;28;20060;-62
2023/04/27 13:10:42;;;;;;;12.20;7.72;;;;;;;;;;5092111;28;20040;-61
2023/04/27 13:13:08;;;;;;;13.65;7.65;;;;;;;;;;5092082;28;20103;-61
2023/04/27 13:15:36;;;;;;;15.35;7.45;;;;;;;;;;5092176;28;20035;-62
2023/04/27 13:18:05;;;;;;;19.55;7.28;;;;;;;;;;5088407;28;20377;-62
2023/04/27 13:20:31;;;;;;;13.05;7.28;;;;;;;;;;5070959;28;20263;-62
2023/04/27 13:22:57;;;;;;;14.52;7.30;;;;;;;;;;5071883;28;20032;-63
2023/04/27 13:25:23;;;;;;;12.75;6.85;;;;;;;;;;5089839;28;20465;-63
2023/04/27 13:27:50;;;;;;;14.38;6.95;;;;;;;;;;5090027;28;20020;-62
2023/04/27 13:30:16;;;;;;;12.68;6.75;;;;;;;;;;5081548;28;20044;-64
2023/04/27 13:32:42;;;;;;;13.88;7.03;;;;;;;;;;5091801;28;20107;-62
2023/04/27 13:35:08;;;;;;;15.27;7.13;;;;;;;;;;5082224;28;20477;-61
2023/04/27 13:37:35;;;;;;;11.98;7.18;;;;;;;;;;5074939;28;20036;-61
2023/04/27 13:40:01;;;;;;;10.07;6.55;;;;;;;;;;5074400;28;20016;-64
2023/04/27 13:42:28;;;;;;;14.98;7.10;;;;;;;;;;5090730;28;20503;-63
2023/04/27 13:44:55;;;;;;;11.95;6.57;;;;;;;;;;5078147;28;20397;-63
2023/04/27 13:47:22;;;;;;;13.18;7.68;;;;;;;;;;5090769;28;20051;-63
2023/04/27 13:49:48;;;;;;;16.23;7.38;;;;;;;;;;5112143;28;20027;-62
2023/04/27 13:52:14;;;;;;;13.02;7.50;;;;;;;;;;5111110;27;20044;-62
2023/04/27 13:54:40;;;;;;;15.27;7.60;;;;;;;;;;5107996;28;20030;-61
2023/04/27 13:57:06;;;;;;;13.07;7.47;;;;;;;;;;5108327;28;20034;-64
2023/04/27 13:59:32;;;;;;;10.70;7.32;;;;;;;;;;5111602;28;20023;-62
2023/04/27 14:01:59;;;;;;;20.70;8.23;;;;;;;;;;5111735;28;20051;-62
2023/04/27 14:04:25;;;;;;;13.18;7.43;;;;;;;;;;5104056;28;20032;-63
2023/04/27 14:06:51;;;;;;;11.60;7.50;;;;;;;;;;5102744;28;20016;-61
2023/04/27 14:09:17;;;;;;;11.68;8.00;;;;;;;;;;5101429;28;20032;-62
2023/04/27 14:11:43;;;;;;;14.10;7.30;;;;;;;;;;5106637;28;20039;-62
2023/04/27 14:14:09;;;;;;;14.18;6.93;;;;;;;;;;5109584;28;20043;-62
2023/04/27 14:16:35;;;;;;;15.18;7.65;;;;;;;;;;5109320;28;20035;-62
2023/04/27 14:19:01;;;;;;;11.80;7.22;;;;;;;;;;5104358;28;20207;-62